createdAt,value
2023-03-24T00:01:07.259Z,13.70
2023-03-24T00:03:37.806Z,13.80
2023-03-24T00:06:07.540Z,13.90
2023-03-24T00:08:37.216Z,13.90
2023-03-24T00:11:07.923Z,14.00
2023-03-24T00:13:38.032Z,14.00
2023-03-24T00:16:08.035Z,14.10
2023-03-24T00:18:39.179Z,14.10
2023-03-24T00:21:09.018Z,14.20
2023-03-24T00:23:36.841Z,14.20
2023-03-24T00:26:06.890Z,14.30
2023-03-24T00:28:37.167Z,14.30
2023-03-24T00:31:08.590Z,14.30
2023-03-24T00:33:40.362Z,14.40
2023-03-24T00:36:11.855Z,14.40
2023-03-24T00:38:41.209Z,14.40
2023-03-24T00:41:10.580Z,14.50
2023-03-24T00:43:38.684Z,14.60
2023-03-24T00:46:10.967Z,14.60
2023-03-24T00:48:41.877Z,14.60
2023-03-24T00:51:10.889Z,14.70
2023-03-24T00:53:43.829Z,14.90
2023-03-24T00:56:15.516Z,15.10
2023-03-24T00:58:43.379Z,15.20
2023-03-24T01:01:13.181Z,15.30
2023-03-24T01:03:50.515Z,15.30
2023-03-24T01:06:22.199Z,15.30
2023-03-24T01:08:53.643Z,15.30
2023-03-24T01:11:24.166Z,15.40
2023-03-24T01:13:54.228Z,15.40
2023-03-24T01:16:25.694Z,15.50
2023-03-24T01:18:55.084Z,15.60
2023-03-24T01:21:25.254Z,15.80
2023-03-24T01:23:53.015Z,16.00
2023-03-24T01:26:20.837Z,16.20
2023-03-24T01:28:48.552Z,16.40
2023-03-24T01:31:16.480Z,16.60
2023-03-24T01:33:44.381Z,16.90
2023-03-24T01:36:13.524Z,17.00
2023-03-24T01:38:41.369Z,17.20
2023-03-24T01:41:09.225Z,17.50
2023-03-24T01:43:37.144Z,17.60
2023-03-24T01:46:14.112Z,17.80
2023-03-24T01:48:46.119Z,17.90
2023-03-24T01:51:19.084Z,18.00
2023-03-24T01:53:52.456Z,18.10
2023-03-24T01:56:20.724Z,18.20
2023-03-24T01:58:52.709Z,18.00
2023-03-24T02:01:31.604Z,17.90
2023-03-24T02:04:09.183Z,17.80
2023-03-24T02:06:41.104Z,17.70
2023-03-24T02:09:10.544Z,17.70
2023-03-24T02:11:41.004Z,17.70
2023-03-24T02:14:09.941Z,18.00
2023-03-24T02:16:54.158Z,18.30
2023-03-24T02:19:46.843Z,18.30
2023-03-24T02:22:47.186Z,18.30
2023-03-24T02:25:38.697Z,18.40
2023-03-24T02:28:17.504Z,18.40
2023-03-24T02:31:09.369Z,18.40
2023-03-24T02:34:05.518Z,18.40
2023-03-24T02:36:59.524Z,18.30
2023-03-24T02:39:41.605Z,18.10
2023-03-24T02:42:21.966Z,18.00
2023-03-24T02:44:58.023Z,17.80
2023-03-24T02:47:33.202Z,17.60
2023-03-24T02:50:09.492Z,17.40
2023-03-24T02:52:44.311Z,17.30
2023-03-24T02:55:18.921Z,17.10
2023-03-24T02:57:52.749Z,17.00
2023-03-24T03:00:47.103Z,16.90
2023-03-24T03:03:41.538Z,16.80
2023-03-24T03:06:16.114Z,16.70
2023-03-24T03:08:47.544Z,16.60
2023-03-24T03:11:17.890Z,16.50
2023-03-24T03:13:53.091Z,16.40
2023-03-24T03:16:25.237Z,16.30
2023-03-24T03:18:57.764Z,16.10
2023-03-24T03:21:30.769Z,15.90
2023-03-24T03:24:03.116Z,15.80
2023-03-24T03:26:34.104Z,15.60
2023-03-24T03:29:06.769Z,15.60
2023-03-24T03:31:41.613Z,15.50
2023-03-24T03:34:17.022Z,15.20
2023-03-24T03:36:51.241Z,15.10
2023-03-24T03:39:23.999Z,15.00
2023-03-24T03:41:53.255Z,15.00
2023-03-24T03:44:21.372Z,14.90
2023-03-24T03:46:49.746Z,14.90
2023-03-24T03:49:25.618Z,14.90
2023-03-24T03:51:55.666Z,14.80
2023-03-24T03:54:25.247Z,14.80
2023-03-24T03:56:54.873Z,14.80
2023-03-24T03:59:29.794Z,14.80
2023-03-24T04:01:59.523Z,14.90
2023-03-24T04:05:05.617Z,15.00
2023-03-24T04:07:52.842Z,15.20
2023-03-24T04:11:02.372Z,15.40
2023-03-24T04:13:40.375Z,15.60
2023-03-24T04:16:23.442Z,15.90
2023-03-24T04:19:15.935Z,16.40
2023-03-24T04:21:58.293Z,16.50
2023-03-24T04:24:40.095Z,16.50
2023-03-24T04:27:17.879Z,16.60
2023-03-24T04:29:55.551Z,16.60
2023-03-24T04:32:32.967Z,16.60
2023-03-24T04:35:05.358Z,16.50
2023-03-24T04:37:54.985Z,16.30
2023-03-24T04:40:27.483Z,15.80
2023-03-24T04:42:57.400Z,15.30
2023-03-24T04:45:33.382Z,14.80
2023-03-24T04:48:21.707Z,14.50
2023-03-24T04:51:10.357Z,14.20
2023-03-24T04:53:50.332Z,14.00
2023-03-24T04:56:32.304Z,13.90
2023-03-24T04:59:06.993Z,13.70
2023-03-24T05:01:37.435Z,13.70
2023-03-24T05:04:28.051Z,13.60
2023-03-24T05:06:57.677Z,13.70
2023-03-24T05:09:27.438Z,13.60
2023-03-24T05:11:55.186Z,13.70
2023-03-24T05:14:24.626Z,13.80
2023-03-24T05:16:56.190Z,13.80
2023-03-24T05:19:25.575Z,13.60
2023-03-24T05:21:53.976Z,13.50
2023-03-24T05:24:24.695Z,13.40
2023-03-24T05:26:52.426Z,13.30
2023-03-24T05:29:21.771Z,13.20
2023-03-24T05:31:49.734Z,13.20
2023-03-24T05:34:22.521Z,13.20
2023-03-24T05:36:57.876Z,13.20
2023-03-24T05:39:25.898Z,13.20
2023-03-24T05:42:01.274Z,13.10
2023-03-24T05:44:29.465Z,13.10
2023-03-24T05:47:05.729Z,13.20
2023-03-24T05:49:36.397Z,13.20
2023-03-24T05:52:09.003Z,13.20
2023-03-24T05:54:39.327Z,13.20
2023-03-24T05:57:17.321Z,13.20
2023-03-24T06:00:11.069Z,13.30
2023-03-24T06:02:47.548Z,13.30
2023-03-24T06:05:38.761Z,13.30
2023-03-24T06:08:09.928Z,13.30
2023-03-24T06:10:40.984Z,13.30
2023-03-24T06:13:09.444Z,13.20
2023-03-24T06:15:42.680Z,13.30
2023-03-24T06:18:27.692Z,13.30
2023-03-24T06:20:58.811Z,13.30
2023-03-24T06:23:30.767Z,13.30
2023-03-24T06:26:11.392Z,13.20
2023-03-24T06:28:51.831Z,13.20
2023-03-24T06:31:21.174Z,13.20
2023-03-24T06:33:52.655Z,13.20
2023-03-24T06:36:25.579Z,13.20
2023-03-24T06:38:54.921Z,13.20
2023-03-24T06:41:23.491Z,13.10
2023-03-24T06:44:00.607Z,13.10
2023-03-24T06:46:28.508Z,13.10
2023-03-24T06:48:57.666Z,13.10
2023-03-24T06:51:28.284Z,13.10
2023-03-24T06:53:56.330Z,13.10
2023-03-24T06:56:24.880Z,13.00
2023-03-24T06:58:58.465Z,13.00
2023-03-24T07:01:30.579Z,13.00
2023-03-24T07:04:03.402Z,12.90
2023-03-24T07:07:14.786Z,13.00
2023-03-24T07:09:53.925Z,13.00
2023-03-24T07:12:22.097Z,13.00
2023-03-24T07:14:50.767Z,13.10
2023-03-24T07:17:18.690Z,13.10
2023-03-24T07:20:08.670Z,13.10
2023-03-24T07:22:58.545Z,13.10
2023-03-24T07:25:40.828Z,13.10
2023-03-24T07:28:16.294Z,13.20
2023-03-24T07:30:44.110Z,13.10
2023-03-24T07:33:13.100Z,13.10
2023-03-24T07:35:44.589Z,13.10
2023-03-24T07:38:12.900Z,13.10
2023-03-24T07:40:42.293Z,13.10
2023-03-24T07:43:10.870Z,13.10
2023-03-24T07:45:51.528Z,13.10
2023-03-24T07:48:19.742Z,13.00
2023-03-24T07:50:47.792Z,13.10
2023-03-24T07:53:35.928Z,13.10
2023-03-24T07:56:05.845Z,13.20
2023-03-24T07:58:33.903Z,13.20
2023-03-24T08:01:12.491Z,13.20
2023-03-24T08:03:45.189Z,13.20
2023-03-24T08:06:19.018Z,13.30
2023-03-24T08:08:51.908Z,13.30
2023-03-24T08:11:21.322Z,13.30
2023-03-24T08:13:49.111Z,13.40
2023-03-24T08:16:16.989Z,13.40
2023-03-24T08:18:44.856Z,13.50
2023-03-24T08:21:12.651Z,13.60
2023-03-24T08:23:41.329Z,13.70
2023-03-24T08:26:10.590Z,13.80
2023-03-24T08:28:41.335Z,13.90
2023-03-24T08:31:11.944Z,14.10
2023-03-24T08:33:45.431Z,14.20
2023-03-24T08:36:14.182Z,14.30
2023-03-24T08:38:43.975Z,14.30
2023-03-24T08:41:11.845Z,14.20
2023-03-24T08:43:40.899Z,14.20
2023-03-24T08:46:12.490Z,14.20
2023-03-24T08:48:41.948Z,14.20
2023-03-24T08:51:12.793Z,14.20
2023-03-24T08:53:40.595Z,14.20
2023-03-24T08:56:08.844Z,14.20
2023-03-24T08:58:36.712Z,14.30
2023-03-24T09:01:05.978Z,14.40
2023-03-24T09:03:33.739Z,14.50
2023-03-24T09:06:01.452Z,14.60
2023-03-24T09:08:29.225Z,14.70
2023-03-24T09:10:56.949Z,14.90
2023-03-24T09:13:24.941Z,15.20
2023-03-24T09:15:54.642Z,15.50
2023-03-24T09:18:23.735Z,15.90
2023-03-24T09:20:53.547Z,15.90
2023-03-24T09:23:22.859Z,15.80
2023-03-24T09:25:51.100Z,15.70
2023-03-24T09:28:20.992Z,15.70
2023-03-24T09:30:49.023Z,15.70
2023-03-24T09:33:20.574Z,15.60
2023-03-24T09:35:58.412Z,15.70
2023-03-24T09:38:28.107Z,15.80
2023-03-24T09:41:00.768Z,16.00
2023-03-24T09:43:38.350Z,16.10
2023-03-24T09:46:12.722Z,16.00
2023-03-24T09:48:46.332Z,16.10
2023-03-24T09:51:23.181Z,16.40
2023-03-24T09:54:00.178Z,16.60
2023-03-24T09:56:30.673Z,16.60
2023-03-24T09:59:09.276Z,16.60
2023-03-24T10:01:39.502Z,16.60
2023-03-24T10:04:16.622Z,16.50
2023-03-24T10:06:53.126Z,16.50
2023-03-24T10:09:26.646Z,16.40
2023-03-24T10:12:10.213Z,16.30
2023-03-24T10:14:53.041Z,16.40
2023-03-24T10:17:30.434Z,16.50
2023-03-24T10:20:05.904Z,16.60
2023-03-24T10:22:40.985Z,16.50
2023-03-24T10:25:20.732Z,16.60
2023-03-24T10:27:52.315Z,16.50
2023-03-24T10:30:29.584Z,16.60
2023-03-24T10:32:57.351Z,16.70
2023-03-24T10:35:30.669Z,16.70
2023-03-24T10:38:01.750Z,16.60
2023-03-24T10:40:36.249Z,16.40
2023-03-24T10:43:09.508Z,16.30
2023-03-24T10:45:41.702Z,16.30
2023-03-24T10:48:10.021Z,16.20
2023-03-24T10:50:45.477Z,15.80
2023-03-24T10:53:20.952Z,15.30
2023-03-24T10:55:50.741Z,15.10
2023-03-24T10:58:29.871Z,14.90
2023-03-24T11:01:01.247Z,14.90
2023-03-24T11:03:32.641Z,14.90
2023-03-24T11:06:02.648Z,15.00
2023-03-24T11:08:37.268Z,15.00
2023-03-24T11:11:16.170Z,14.90
2023-03-24T11:13:57.757Z,14.80
2023-03-24T11:16:29.636Z,14.60
2023-03-24T11:19:01.524Z,14.50
2023-03-24T11:21:32.458Z,14.40
2023-03-24T11:24:03.774Z,14.40
2023-03-24T11:26:34.260Z,14.50
2023-03-24T11:29:04.857Z,14.70
2023-03-24T11:31:38.130Z,14.80
2023-03-24T11:34:11.520Z,14.90
2023-03-24T11:36:44.723Z,15.20
2023-03-24T11:39:19.313Z,15.50
2023-03-24T11:41:54.491Z,15.60
2023-03-24T11:44:24.155Z,15.70
2023-03-24T11:46:55.972Z,15.80
2023-03-24T11:49:28.885Z,15.90
2023-03-24T11:52:10.553Z,15.70
2023-03-24T11:54:40.009Z,15.70
2023-03-24T11:57:13.150Z,15.60
2023-03-24T11:59:47.795Z,15.70
2023-03-24T12:02:25.337Z,15.70
2023-03-24T12:05:04.731Z,15.70
2023-03-24T12:07:47.648Z,15.90
2023-03-24T12:10:30.164Z,16.00
2023-03-24T12:13:09.212Z,15.80
2023-03-24T12:15:57.194Z,16.00
2023-03-24T12:18:40.585Z,15.90
2023-03-24T12:21:20.834Z,16.00
2023-03-24T12:23:58.730Z,16.00
2023-03-24T12:26:30.719Z,15.90
2023-03-24T12:29:09.887Z,15.80
2023-03-24T12:31:53.927Z,15.60
2023-03-24T12:34:49.638Z,15.70
2023-03-24T12:37:26.099Z,15.80
2023-03-24T12:40:10.161Z,15.30
2023-03-24T12:42:41.333Z,14.80
2023-03-24T12:45:22.277Z,14.50
2023-03-24T12:48:03.200Z,14.40
2023-03-24T12:50:42.524Z,14.30
2023-03-24T12:53:23.046Z,14.00
2023-03-24T12:55:53.855Z,14.00
2023-03-24T12:58:27.798Z,14.20
2023-03-24T13:01:02.217Z,14.10
2023-03-24T13:03:35.035Z,13.90
2023-03-24T13:06:17.181Z,13.80
2023-03-24T13:08:53.634Z,13.50
2023-03-24T13:11:33.222Z,13.50
2023-03-24T13:14:05.650Z,13.30
2023-03-24T13:16:37.300Z,13.20
2023-03-24T13:19:12.338Z,13.10
2023-03-24T13:21:40.241Z,12.90
2023-03-24T13:24:11.604Z,12.70
2023-03-24T13:26:45.623Z,12.60
2023-03-24T13:29:27.844Z,12.60
2023-03-24T13:32:07.142Z,12.70
2023-03-24T13:34:43.207Z,12.60
2023-03-24T13:37:15.713Z,12.60
2023-03-24T13:39:45.914Z,12.50
2023-03-24T13:42:31.275Z,12.50
2023-03-24T13:45:03.129Z,12.50
2023-03-24T13:47:50.345Z,12.40
2023-03-24T13:50:20.246Z,12.30
2023-03-24T13:52:51.238Z,12.30
2023-03-24T13:55:25.874Z,12.20
2023-03-24T13:57:57.698Z,12.20
2023-03-24T14:00:28.648Z,12.10
2023-03-24T14:03:16.439Z,12.20
2023-03-24T14:06:05.139Z,12.40
2023-03-24T14:08:55.879Z,12.60
2023-03-24T14:11:42.928Z,12.80
2023-03-24T14:14:19.113Z,12.90
2023-03-24T14:16:53.188Z,13.00
2023-03-24T14:19:26.390Z,13.00
2023-03-24T14:22:01.721Z,13.00
2023-03-24T14:24:32.831Z,13.00
2023-03-24T14:27:01.107Z,13.00
2023-03-24T14:29:40.173Z,13.00
2023-03-24T14:32:20.457Z,13.10
2023-03-24T14:34:55.663Z,13.30
2023-03-24T14:37:24.551Z,13.30
2023-03-24T14:39:52.848Z,13.40
2023-03-24T14:42:52.032Z,13.40
2023-03-24T14:45:42.116Z,13.40
2023-03-24T14:48:29.718Z,13.50
2023-03-24T14:51:02.859Z,13.50
2023-03-24T14:53:31.047Z,13.50
2023-03-24T14:56:00.082Z,13.60
2023-03-24T14:58:40.258Z,13.70
2023-03-24T15:01:11.230Z,13.70
2023-03-24T15:03:51.132Z,13.80
2023-03-24T15:06:23.175Z,13.70
2023-03-24T15:08:52.525Z,13.70
2023-03-24T15:11:22.921Z,13.80
2023-03-24T15:13:54.146Z,13.80
2023-03-24T15:16:26.107Z,13.80
2023-03-24T15:21:30.964Z,13.90
2023-03-24T15:24:01.050Z,14.10
2023-03-24T15:26:31.410Z,14.10
2023-03-24T15:29:01.265Z,14.10
2023-03-24T15:31:33.812Z,14.20
2023-03-24T15:34:05.195Z,14.30
2023-03-24T15:36:39.852Z,14.30
2023-03-24T15:39:19.552Z,14.30
2023-03-24T15:41:54.004Z,14.20
2023-03-24T15:44:26.405Z,14.10
2023-03-24T15:46:59.875Z,14.00
2023-03-24T15:49:31.969Z,14.00
2023-03-24T15:52:01.823Z,14.00
2023-03-24T15:54:33.596Z,14.00
2023-03-24T15:57:04.684Z,14.10
2023-03-24T15:59:37.047Z,14.10
2023-03-24T16:02:15.428Z,14.10
2023-03-24T16:04:44.463Z,14.10
2023-03-24T16:07:29.300Z,14.10
2023-03-24T16:10:04.212Z,14.10
2023-03-24T16:12:33.581Z,14.10
2023-03-24T16:15:01.583Z,14.10
2023-03-24T16:17:30.874Z,14.10
2023-03-24T16:19:58.700Z,14.10
2023-03-24T16:22:26.410Z,14.20
2023-03-24T16:24:56.128Z,14.10
2023-03-24T16:27:23.835Z,14.20
2023-03-24T16:29:52.574Z,14.20
2023-03-24T16:32:21.126Z,14.20
2023-03-24T16:34:51.627Z,14.20
2023-03-24T16:37:19.629Z,14.20
2023-03-24T16:39:47.358Z,14.20
2023-03-24T16:42:15.266Z,14.20
2023-03-24T16:44:43.240Z,14.20
2023-03-24T16:47:12.024Z,14.20
2023-03-24T16:49:40.973Z,14.20
2023-03-24T16:52:13.317Z,14.10
2023-03-24T16:54:42.713Z,14.10
2023-03-24T16:57:10.470Z,14.10
2023-03-24T16:59:38.217Z,14.10
2023-03-24T17:02:06.042Z,14.00
2023-03-24T17:04:35.388Z,14.00
2023-03-24T17:07:03.836Z,14.00
2023-03-24T17:09:35.322Z,13.90
2023-03-24T17:12:04.159Z,13.90
2023-03-24T17:14:32.111Z,13.90
2023-03-24T17:17:02.655Z,13.80
2023-03-24T17:19:32.914Z,13.80
2023-03-24T17:22:04.022Z,13.80
2023-03-24T17:24:36.459Z,13.70
2023-03-24T17:27:04.990Z,13.70
2023-03-24T17:29:34.270Z,13.70
2023-03-24T17:32:02.173Z,13.60
2023-03-24T17:34:30.482Z,13.60
2023-03-24T17:36:58.248Z,13.60
2023-03-24T17:39:26.186Z,13.60
2023-03-24T17:41:57.624Z,13.50
2023-03-24T17:44:25.650Z,13.50
2023-03-24T17:46:53.460Z,13.50
2023-03-24T17:49:21.706Z,13.50
2023-03-24T17:51:49.625Z,13.40
2023-03-24T17:54:19.964Z,13.50
2023-03-24T17:56:47.821Z,13.40
2023-03-24T17:59:16.997Z,13.40
2023-03-24T18:01:44.797Z,13.40
2023-03-24T18:04:12.625Z,13.40
2023-03-24T18:06:41.890Z,13.40
2023-03-24T18:09:10.355Z,13.40
2023-03-24T18:11:38.409Z,13.30
2023-03-24T18:14:08.865Z,13.30
2023-03-24T18:16:39.186Z,13.30
2023-03-24T18:19:07.622Z,13.30
2023-03-24T18:21:35.654Z,13.30
2023-03-24T18:24:04.409Z,13.30
2023-03-24T18:26:33.408Z,13.30
2023-03-24T18:29:01.068Z,13.30
2023-03-24T18:31:31.489Z,13.20
2023-03-24T18:34:00.808Z,13.20
2023-03-24T18:36:29.042Z,13.20
2023-03-24T18:38:58.724Z,13.20
2023-03-24T18:41:28.204Z,13.20
2023-03-24T18:43:56.944Z,13.20
2023-03-24T18:46:26.051Z,13.20
2023-03-24T18:48:54.222Z,13.20
2023-03-24T18:51:25.283Z,13.20
2023-03-24T18:53:53.505Z,13.20
2023-03-24T18:56:22.366Z,13.10
2023-03-24T18:58:51.884Z,13.10
2023-03-24T19:01:22.704Z,13.10
2023-03-24T19:03:52.594Z,13.10
2023-03-24T19:06:21.005Z,13.10
2023-03-24T19:08:53.320Z,13.00
2023-03-24T19:11:21.361Z,13.00
2023-03-24T19:13:50.437Z,13.00
2023-03-24T19:16:18.764Z,12.90
2023-03-24T19:18:48.199Z,12.90
2023-03-24T19:21:16.813Z,12.80
2023-03-24T19:23:44.809Z,12.80
2023-03-24T19:26:16.012Z,12.90
2023-03-24T19:28:44.422Z,12.90
2023-03-24T19:31:14.920Z,12.90
2023-03-24T19:33:42.811Z,12.80
2023-03-24T19:36:11.466Z,12.80
2023-03-24T19:38:40.153Z,12.80
2023-03-24T19:41:09.601Z,12.80
2023-03-24T19:43:39.308Z,12.80
2023-03-24T19:46:07.794Z,12.80
2023-03-24T19:48:37.110Z,12.80
2023-03-24T19:51:05.609Z,12.80
2023-03-24T19:53:33.462Z,12.80
2023-03-24T19:56:01.922Z,12.80
2023-03-24T19:58:29.661Z,12.80
2023-03-24T20:00:59.272Z,12.80
2023-03-24T20:03:28.766Z,12.80
2023-03-24T20:05:56.828Z,12.80
2023-03-24T20:08:25.925Z,12.90
2023-03-24T20:10:53.776Z,12.80
2023-03-24T20:13:23.833Z,12.90
2023-03-24T20:15:51.893Z,12.90
2023-03-24T20:18:21.525Z,12.90
2023-03-24T20:20:49.323Z,12.90
2023-03-24T20:23:17.142Z,12.90
2023-03-24T20:25:44.970Z,12.90
2023-03-24T20:28:12.958Z,12.90
2023-03-24T20:30:43.015Z,12.90
2023-03-24T20:33:11.870Z,12.90
2023-03-24T20:35:41.839Z,12.90
2023-03-24T20:38:12.536Z,13.00
2023-03-24T20:40:40.251Z,13.00
2023-03-24T20:43:07.962Z,13.10
2023-03-24T20:45:35.743Z,13.10
2023-03-24T20:48:03.518Z,13.20
2023-03-24T20:50:31.530Z,13.20
2023-03-24T20:53:01.621Z,13.20
2023-03-24T20:55:29.508Z,13.30
2023-03-24T20:57:58.521Z,13.20
2023-03-24T21:00:26.653Z,13.10
2023-03-24T21:02:54.515Z,13.00
2023-03-24T21:05:24.922Z,12.90
2023-03-24T21:07:53.613Z,12.80
2023-03-24T21:10:22.661Z,12.80
2023-03-24T21:12:53.355Z,12.70
2023-03-24T21:15:25.753Z,12.70
2023-03-24T21:17:57.210Z,12.70
2023-03-24T21:20:30.551Z,12.60
2023-03-24T21:23:04.367Z,12.70
2023-03-24T21:25:34.371Z,12.70
2023-03-24T21:28:02.085Z,12.70
2023-03-24T21:30:32.383Z,12.80
2023-03-24T21:33:02.464Z,12.80
2023-03-24T21:35:30.316Z,12.80
2023-03-24T21:37:58.230Z,12.80
2023-03-24T21:40:26.927Z,12.80
2023-03-24T21:42:56.190Z,12.80
2023-03-24T21:45:24.307Z,12.70
2023-03-24T21:47:55.133Z,12.70
2023-03-24T21:50:23.851Z,12.80
2023-03-24T21:52:52.954Z,12.80
2023-03-24T21:55:21.636Z,12.80
2023-03-24T21:57:50.954Z,12.90
2023-03-24T22:00:22.260Z,12.80
2023-03-24T22:02:52.685Z,12.80
2023-03-24T22:05:22.860Z,12.80
2023-03-24T22:07:51.294Z,12.80
2023-03-24T22:10:22.850Z,12.80
2023-03-24T22:12:51.215Z,12.60
2023-03-24T22:15:20.652Z,12.30
2023-03-24T22:17:48.501Z,11.90
2023-03-24T22:20:16.658Z,11.40
2023-03-24T22:22:44.799Z,11.00
2023-03-24T22:25:15.776Z,10.60
2023-03-24T22:27:43.537Z,9.90
2023-03-24T22:30:13.671Z,9.30
2023-03-24T22:32:43.029Z,9.00
2023-03-24T22:35:11.231Z,8.80
2023-03-24T22:37:38.883Z,8.70
2023-03-24T22:40:08.796Z,8.70
2023-03-24T22:42:36.555Z,8.70
2023-03-24T22:45:04.560Z,8.70
2023-03-24T22:47:32.361Z,8.70
2023-03-24T22:50:01.592Z,8.80
2023-03-24T22:52:29.330Z,8.90
2023-03-24T22:54:57.014Z,9.00
2023-03-24T22:57:24.807Z,9.00
2023-03-24T22:59:52.468Z,9.00
2023-03-24T23:02:24.392Z,9.00
2023-03-24T23:04:52.705Z,9.00
2023-03-24T23:07:24.197Z,9.10
2023-03-24T23:09:53.199Z,9.10
2023-03-24T23:12:21.282Z,9.20
2023-03-24T23:14:48.956Z,9.20
2023-03-24T23:17:17.060Z,9.20
2023-03-24T23:19:44.792Z,9.30
2023-03-24T23:22:12.681Z,9.30
2023-03-24T23:24:42.163Z,9.30
2023-03-24T23:27:09.847Z,9.30
2023-03-24T23:29:40.206Z,9.30
2023-03-24T23:32:08.124Z,9.20
2023-03-24T23:34:37.970Z,9.20
2023-03-24T23:37:05.938Z,9.20
2023-03-24T23:39:36.510Z,9.20
2023-03-24T23:42:06.187Z,9.20
2023-03-24T23:44:33.953Z,9.20
2023-03-24T23:47:01.835Z,9.20
2023-03-24T23:49:29.545Z,9.30
2023-03-24T23:51:57.262Z,9.30
2023-03-24T23:54:25.004Z,9.30
2023-03-24T23:56:53.692Z,9.30
2023-03-24T23:59:22.795Z,9.40
